Time,TemperatureF,DewpointF,PressureIn,WindDirection,WindDirectionDegrees,WindSpeedMPH,WindSpeedGustMPH,Humidity,HourlyPrecipIn,Conditions,Clouds,dailyrainin,SoftwareType,DateUTC
2013-02-07 00:06:00,14.0,10.0,30.30,ESE,111,2.0,4.0,83,0.00,,,0.00,weatherlink.com 1.10,2013-02-07 05:06:00,
2013-02-07 00:21:00,13.4,9.0,30.29,SE,135,0.0,1.0,83,0.00,,,0.00,weatherlink.com 1.10,2013-02-07 05:21:00,
2013-02-07 00:36:00,13.1,9.0,30.28,SE,134,1.0,2.0,83,0.00,,,0.00,weatherlink.com 1.10,2013-02-07 05:36:00,
2013-02-07 00:51:00,13.1,9.0,30.27,SE,136,2.0,2.0,84,0.00,,,0.00,weatherlink.com 1.10,2013-02-07 05:51:00,
2013-02-07 01:06:00,12.6,9.0,30.28,SE,135,0.0,2.0,85,0.00,,,0.00,weatherlink.com 1.10,2013-02-07 06:06:00,
2013-02-07 01:21:00,12.8,9.0,30.29,SE,135,0.0,0.0,86,0.00,,,0.00,weatherlink.com 1.10,2013-02-07 06:21:00,
2013-02-07 01:36:00,13.2,9.0,30.30,ESE,120,2.0,3.0,84,0.00,,,0.00,weatherlink.com 1.10,2013-02-07 06:36:00,
2013-02-07 01:51:00,13.4,9.0,30.30,SE,128,0.0,4.0,83,0.00,,,0.00,weatherlink.com 1.10,2013-02-07 06:51:00,
2013-02-07 02:06:00,13.3,9.0,30.31,SE,128,2.0,2.0,83,0.00,,,0.00,weatherlink.com 1.10,2013-02-07 07:06:00,
2013-02-07 02:21:00,12.8,9.0,30.32,SE,128,2.0,4.0,83,0.00,,,0.00,weatherlink.com 1.10,2013-02-07 07:21:00,
2013-02-07 02:36:00,12.5,9.0,30.31,SE,128,0.0,2.0,84,0.00,,,0.00,weatherlink.com 1.10,2013-02-07 07:36:00,
2013-02-07 02:51:00,12.3,8.0,30.31,SE,128,0.0,0.0,84,0.00,,,0.00,weatherlink.com 1.10,2013-02-07 07:51:00,
2013-02-07 03:06:00,12.1,9.0,30.31,SE,128,0.0,0.0,85,0.00,,,0.00,weatherlink.com 1.10,2013-02-07 08:06:00,
2013-02-07 03:21:00,12.1,9.0,30.30,SE,128,0.0,0.0,85,0.00,,,0.00,weatherlink.com 1.10,2013-02-07 08:21:00,
2013-02-07 03:36:00,12.5,9.0,30.30,SE,128,0.0,0.0,86,0.00,,,0.00,weatherlink.com 1.10,2013-02-07 08:36:00,
2013-02-07 03:51:00,13.9,11.0,30.30,SE,132,0.0,0.0,87,0.00,,,0.00,weatherlink.com 1.10,2013-02-07 08:51:00,
2013-02-07 04:06:00,14.9,12.0,30.31,SE,132,0.0,0.0,86,0.00,,,0.00,weatherlink.com 1.10,2013-02-07 09:06:00,
2013-02-07 04:21:00,15.5,12.0,30.32,SE,132,0.0,0.0,86,0.00,,,0.00,weatherlink.com 1.10,2013-02-07 09:21:00,
2013-02-07 04:36:00,16.1,12.0,30.32,SE,132,0.0,0.0,85,0.00,,,0.00,weatherlink.com 1.10,2013-02-07 09:36:00,
2013-02-07 04:51:00,16.5,13.0,30.33,SE,132,0.0,0.0,84,0.00,,,0.00,weatherlink.com 1.10,2013-02-07 09:51:00,
2013-02-07 05:07:00,16.7,13.0,30.34,SE,132,0.0,0.0,84,0.00,,,0.00,weatherlink.com 1.10,2013-02-07 10:07:00,
2013-02-07 05:22:00,16.8,13.0,30.34,SE,146,0.0,2.0,83,0.00,,,0.00,weatherlink.com 1.10,2013-02-07 10:22:00,
2013-02-07 05:37:00,16.4,12.0,30.34,SSE,160,0.0,1.0,83,0.00,,,0.00,weatherlink.com 1.10,2013-02-07 10:37:00,
2013-02-07 05:52:00,16.2,12.0,30.34,ESE,122,3.0,5.0,83,0.00,,,0.00,weatherlink.com 1.10,2013-02-07 10:52:00,
2013-02-07 06:07:00,15.6,12.0,30.34,SE,135,1.0,5.0,84,0.00,,,0.00,weatherlink.com 1.10,2013-02-07 11:07:00,
2013-02-07 06:22:00,15.2,11.0,30.34,SE,134,3.0,6.0,84,0.00,,,0.00,weatherlink.com 1.10,2013-02-07 11:22:00,
2013-02-07 06:37:00,14.9,11.0,30.34,SE,128,5.0,7.0,84,0.00,,,0.00,weatherlink.com 1.10,2013-02-07 11:37:00,
2013-02-07 06:52:00,14.7,11.0,30.34,SE,131,3.0,7.0,84,0.00,,,0.00,weatherlink.com 1.10,2013-02-07 11:52:00,
2013-02-07 07:07:00,15.0,11.0,30.35,SE,132,4.0,6.0,84,0.00,,,0.00,weatherlink.com 1.10,2013-02-07 12:07:00,
2013-02-07 07:22:00,15.7,12.0,30.36,SSE,149,0.0,8.0,84,0.00,,,0.00,weatherlink.com 1.10,2013-02-07 12:22:00,
2013-02-07 07:37:00,16.5,12.0,30.36,SSE,167,0.0,2.0,83,0.00,,,0.00,weatherlink.com 1.10,2013-02-07 12:37:00,
2013-02-07 07:52:00,17.2,12.0,30.36,SE,143,1.0,8.0,80,0.00,,,0.00,weatherlink.com 1.10,2013-02-07 12:52:00,
2013-02-07 08:07:00,17.8,12.0,30.37,SE,130,3.0,6.0,79,0.00,,,0.00,weatherlink.com 1.10,2013-02-07 13:07:00,
2013-02-07 08:22:00,18.0,12.0,30.37,SE,128,1.0,6.0,77,0.00,,,0.00,weatherlink.com 1.10,2013-02-07 13:22:00,
2013-02-07 08:37:00,18.2,12.0,30.38,SE,140,0.0,7.0,77,0.00,,,0.00,weatherlink.com 1.10,2013-02-07 13:37:00,
2013-02-07 08:52:00,19.0,13.0,30.38,SE,126,0.0,6.0,76,0.00,,,0.00,weatherlink.com 1.10,2013-02-07 13:52:00,
2013-02-07 09:07:00,19.8,12.0,30.38,South,171,1.0,5.0,73,0.00,,,0.00,weatherlink.com 1.10,2013-02-07 14:07:00,
2013-02-07 09:22:00,20.4,12.0,30.38,SE,139,1.0,6.0,70,0.00,,,0.00,weatherlink.com 1.10,2013-02-07 14:22:00,
2013-02-07 09:37:00,20.8,12.0,30.38,ESE,105,5.0,7.0,69,0.00,,,0.00,weatherlink.com 1.10,2013-02-07 14:37:00,
2013-02-07 09:52:00,21.0,12.0,30.37,SSE,154,5.0,8.0,68,0.00,,,0.00,weatherlink.com 1.10,2013-02-07 14:52:00,
2013-02-07 10:07:00,21.6,12.0,30.36,SE,126,8.0,9.0,67,0.00,,,0.00,weatherlink.com 1.10,2013-02-07 15:07:00,
2013-02-07 10:22:00,22.5,12.0,30.36,East,88,6.0,14.0,64,0.00,,,0.00,weatherlink.com 1.10,2013-02-07 15:22:00,
2013-02-07 10:37:00,23.5,13.0,30.36,ENE,65,4.0,11.0,63,0.00,,,0.00,weatherlink.com 1.10,2013-02-07 15:37:00,
2013-02-07 10:52:00,24.4,13.0,30.36,ESE,122,4.0,10.0,61,0.00,,,0.00,weatherlink.com 1.10,2013-02-07 15:52:00,
2013-02-07 11:07:00,25.1,14.0,30.36,South,169,6.0,12.0,62,0.00,,,0.00,weatherlink.com 1.10,2013-02-07 16:07:00,
2013-02-07 11:22:00,25.8,14.0,30.34,SE,129,3.0,7.0,60,0.00,,,0.00,weatherlink.com 1.10,2013-02-07 16:22:00,
2013-02-07 11:37:00,26.2,13.0,30.34,NNE,20,4.0,10.0,58,0.00,,,0.00,weatherlink.com 1.10,2013-02-07 16:37:00,
2013-02-07 11:52:00,26.9,14.0,30.33,SE,144,4.0,9.0,58,0.00,,,0.00,weatherlink.com 1.10,2013-02-07 16:52:00,
2013-02-07 12:08:00,27.6,14.0,30.31,SE,140,0.0,10.0,57,0.00,,,0.00,weatherlink.com 1.10,2013-02-07 17:08:00,
2013-02-07 12:23:00,28.4,15.0,30.30,ESE,109,3.0,10.0,57,0.00,,,0.00,weatherlink.com 1.10,2013-02-07 17:23:00,
2013-02-07 12:38:00,28.5,14.0,30.29,ENE,63,1.0,10.0,56,0.00,,,0.00,weatherlink.com 1.10,2013-02-07 17:38:00,
2013-02-07 12:53:00,28.5,14.0,30.29,ESE,111,4.0,12.0,56,0.00,,,0.00,weatherlink.com 1.10,2013-02-07 17:53:00,
2013-02-07 13:08:00,29.0,15.0,30.28,ESE,107,1.0,10.0,57,0.00,,,0.00,weatherlink.com 1.10,2013-02-07 18:08:00,
2013-02-07 13:23:00,29.2,16.0,30.27,ENE,74,1.0,9.0,57,0.00,,,0.00,weatherlink.com 1.10,2013-02-07 18:23:00,
2013-02-07 13:38:00,29.8,17.0,30.26,SE,146,3.0,7.0,58,0.00,,,0.00,weatherlink.com 1.10,2013-02-07 18:38:00,
2013-02-07 13:53:00,30.3,17.0,30.26,East,90,0.0,13.0,57,0.00,,,0.00,weatherlink.com 1.10,2013-02-07 18:53:00,
2013-02-07 14:08:00,30.6,17.0,30.24,SE,142,3.0,9.0,57,0.00,,,0.00,weatherlink.com 1.10,2013-02-07 19:08:00,
2013-02-07 14:23:00,30.9,17.0,30.23,SSW,204,1.0,11.0,57,0.00,,,0.00,weatherlink.com 1.10,2013-02-07 19:23:00,
2013-02-07 14:38:00,31.6,17.0,30.23,NNE,13,1.0,11.0,55,0.00,,,0.00,weatherlink.com 1.10,2013-02-07 19:38:00,
2013-02-07 14:53:00,32.6,17.0,30.22,SSE,157,0.0,10.0,54,0.00,,,0.00,weatherlink.com 1.10,2013-02-07 19:53:00,
2013-02-07 15:08:00,32.1,17.0,30.21,SE,143,2.0,9.0,55,0.00,,,0.00,weatherlink.com 1.10,2013-02-07 20:08:00,
2013-02-07 15:23:00,33.3,18.0,30.21,SW,216,2.0,9.0,54,0.00,,,0.00,weatherlink.com 1.10,2013-02-07 20:23:00,
2013-02-07 15:38:00,34.2,19.0,30.20,ESE,121,4.0,8.0,54,0.00,,,0.00,weatherlink.com 1.10,2013-02-07 20:38:00,
2013-02-07 15:53:00,33.2,18.0,30.19,SE,124,1.0,10.0,54,0.00,,,0.00,weatherlink.com 1.10,2013-02-07 20:53:00,
2013-02-07 16:08:00,31.9,18.0,30.19,WNW,293,4.0,10.0,56,0.00,,,0.00,weatherlink.com 1.10,2013-02-07 21:08:00,
2013-02-07 16:23:00,31.7,18.0,30.19,SE,144,1.0,9.0,58,0.00,,,0.00,weatherlink.com 1.10,2013-02-07 21:23:00,
2013-02-07 16:38:00,31.8,18.0,30.19,SE,130,0.0,7.0,58,0.00,,,0.00,weatherlink.com 1.10,2013-02-07 21:38:00,
2013-02-07 16:53:00,31.4,18.0,30.18,SE,145,8.0,8.0,59,0.00,,,0.00,weatherlink.com 1.10,2013-02-07 21:53:00,
2013-02-07 17:08:00,31.2,19.0,30.19,SE,138,0.0,7.0,60,0.00,,,0.00,weatherlink.com 1.10,2013-02-07 22:08:00,
2013-02-07 17:23:00,31.1,19.0,30.18,SE,127,1.0,7.0,61,0.00,,,0.00,weatherlink.com 1.10,2013-02-07 22:23:00,
2013-02-07 17:38:00,31.2,19.0,30.19,SSE,148,0.0,6.0,62,0.00,,,0.00,weatherlink.com 1.10,2013-02-07 22:38:00,
2013-02-07 17:53:00,31.5,20.0,30.18,NW,311,0.0,6.0,62,0.00,,,0.00,weatherlink.com 1.10,2013-02-07 22:53:00,
2013-02-07 18:08:00,31.7,20.0,30.19,SW,223,2.0,6.0,61,0.00,,,0.00,weatherlink.com 1.10,2013-02-07 23:08:00,
2013-02-07 18:23:00,31.7,20.0,30.18,East,81,2.0,7.0,61,0.00,,,0.00,weatherlink.com 1.10,2013-02-07 23:23:00,
2013-02-07 18:38:00,31.5,19.0,30.19,East,98,1.0,6.0,60,0.00,,,0.00,weatherlink.com 1.10,2013-02-07 23:38:00,
2013-02-07 18:53:00,31.2,19.0,30.18,NE,34,0.0,11.0,60,0.00,,,0.00,weatherlink.com 1.10,2013-02-07 23:53:00,
2013-02-07 19:08:00,30.8,19.0,30.18,SE,129,0.0,6.0,61,0.00,,,0.00,weatherlink.com 1.10,2013-02-08 00:08:00,
2013-02-07 19:23:00,30.6,19.0,30.18,ENE,69,2.0,6.0,62,0.00,,,0.00,weatherlink.com 1.10,2013-02-08 00:23:00,
2013-02-07 19:38:00,30.6,19.0,30.17,SW,220,1.0,7.0,62,0.00,,,0.00,weatherlink.com 1.10,2013-02-08 00:38:00,
2013-02-07 19:53:00,30.7,19.0,30.17,SSW,211,6.0,10.0,61,0.00,,,0.00,weatherlink.com 1.10,2013-02-08 00:53:00,
2013-02-07 20:08:00,30.7,19.0,30.17,SE,130,1.0,7.0,61,0.00,,,0.00,weatherlink.com 1.10,2013-02-08 01:08:00,
2013-02-07 20:23:00,30.6,18.0,30.16,SE,137,0.0,8.0,61,0.00,,,0.00,weatherlink.com 1.10,2013-02-08 01:23:00,
2013-02-07 20:38:00,30.6,18.0,30.16,NNW,334,2.0,12.0,61,0.00,,,0.00,weatherlink.com 1.10,2013-02-08 01:38:00,
2013-02-07 20:53:00,30.6,19.0,30.15,SSW,194,2.0,14.0,62,0.00,,,0.00,weatherlink.com 1.10,2013-02-08 01:53:00,
2013-02-07 21:08:00,30.6,19.0,30.15,ESE,103,5.0,7.0,62,0.00,,,0.00,weatherlink.com 1.10,2013-02-08 02:08:00,
2013-02-07 21:23:00,30.6,19.0,30.14,ENE,62,1.0,10.0,62,0.00,,,0.00,weatherlink.com 1.10,2013-02-08 02:23:00,
2013-02-07 21:38:00,30.4,19.0,30.14,ESE,119,4.0,8.0,62,0.00,,,0.00,weatherlink.com 1.10,2013-02-08 02:38:00,
2013-02-07 21:54:00,30.2,19.0,30.13,SSW,213,4.0,10.0,63,0.00,,,0.00,weatherlink.com 1.10,2013-02-08 02:54:00,
2013-02-07 22:09:00,30.0,19.0,30.12,SW,214,6.0,10.0,63,0.00,,,0.00,weatherlink.com 1.10,2013-02-08 03:09:00,
2013-02-07 22:24:00,29.8,18.0,30.12,NW,310,0.0,9.0,63,0.00,,,0.00,weatherlink.com 1.10,2013-02-08 03:24:00,
2013-02-07 22:39:00,29.6,18.0,30.11,SW,232,1.0,7.0,63,0.00,,,0.00,weatherlink.com 1.10,2013-02-08 03:39:00,
2013-02-07 22:54:00,29.5,18.0,30.10,NNW,327,3.0,11.0,63,0.00,,,0.00,weatherlink.com 1.10,2013-02-08 03:54:00,
2013-02-07 23:09:00,29.4,18.0,30.09,ESE,104,4.0,14.0,62,0.00,,,0.00,weatherlink.com 1.10,2013-02-08 04:09:00,
2013-02-07 23:24:00,29.3,18.0,30.08,NE,55,2.0,10.0,62,0.00,,,0.00,weatherlink.com 1.10,2013-02-08 04:24:00,
2013-02-07 23:39:00,29.3,18.0,30.07,North,11,4.0,12.0,63,0.00,,,0.00,weatherlink.com 1.10,2013-02-08 04:39:00,
2013-02-07 23:54:00,29.2,18.0,30.06,SSE,153,10.0,13.0,63,0.00,,,0.00,weatherlink.com 1.10,2013-02-08 04:54:00,